sensor_id;sensor_type;location;lat;lon;timestamp;P1;durP1;ratioP1;P2;durP2;ratioP2
62258;SDS011;48241;48.824;10.102;2022-12-17T00:01:51;27.25;;;13.70;;
62258;SDS011;48241;48.824;10.102;2022-12-17T00:04:36;38.05;;;17.30;;
62258;SDS011;48241;48.824;10.102;2022-12-17T00:07:26;33.70;;;16.85;;
62258;SDS011;48241;48.824;10.102;2022-12-17T00:10:11;35.80;;;17.35;;
62258;SDS011;48241;48.824;10.102;2022-12-17T00:12:58;32.25;;;15.68;;
62258;SDS011;48241;48.824;10.102;2022-12-17T00:15:59;32.75;;;15.40;;
62258;SDS011;48241;48.824;10.102;2022-12-17T00:18:43;34.53;;;15.48;;
62258;SDS011;48241;48.824;10.102;2022-12-17T00:21:28;27.95;;;14.02;;
62258;SDS011;48241;48.824;10.102;2022-12-17T00:24:13;37.00;;;18.38;;
62258;SDS011;48241;48.824;10.102;2022-12-17T00:27:00;36.53;;;16.55;;
62258;SDS011;48241;48.824;10.102;2022-12-17T00:29:45;31.85;;;16.27;;
62258;SDS011;48241;48.824;10.102;2022-12-17T00:38:29;34.70;;;16.52;;
62258;SDS011;48241;48.824;10.102;2022-12-17T00:41:17;39.83;;;17.08;;
62258;SDS011;48241;48.824;10.102;2022-12-17T00:44:02;34.08;;;18.08;;
62258;SDS011;48241;48.824;10.102;2022-12-17T00:46:50;34.70;;;17.30;;
62258;SDS011;48241;48.824;10.102;2022-12-17T00:49:35;40.00;;;18.08;;
62258;SDS011;48241;48.824;10.102;2022-12-17T00:52:38;34.58;;;17.75;;
62258;SDS011;48241;48.824;10.102;2022-12-17T00:55:30;37.35;;;17.58;;
62258;SDS011;48241;48.824;10.102;2022-12-17T01:01:47;36.85;;;17.15;;
62258;SDS011;48241;48.824;10.102;2022-12-17T01:04:45;36.10;;;17.48;;
62258;SDS011;48241;48.824;10.102;2022-12-17T01:07:29;33.38;;;17.58;;
62258;SDS011;48241;48.824;10.102;2022-12-17T01:10:27;35.65;;;17.30;;
62258;SDS011;48241;48.824;10.102;2022-12-17T01:13:15;34.03;;;17.02;;
62258;SDS011;48241;48.824;10.102;2022-12-17T01:16:02;34.92;;;18.27;;
62258;SDS011;48241;48.824;10.102;2022-12-17T01:18:51;37.90;;;17.83;;
62258;SDS011;48241;48.824;10.102;2022-12-17T01:21:36;35.22;;;18.67;;
62258;SDS011;48241;48.824;10.102;2022-12-17T01:24:20;34.20;;;18.60;;
62258;SDS011;48241;48.824;10.102;2022-12-17T01:27:05;33.80;;;16.83;;
62258;SDS011;48241;48.824;10.102;2022-12-17T01:29:50;36.47;;;18.42;;
62258;SDS011;48241;48.824;10.102;2022-12-17T01:32:34;34.10;;;17.38;;
62258;SDS011;48241;48.824;10.102;2022-12-17T01:35:19;40.33;;;17.85;;
62258;SDS011;48241;48.824;10.102;2022-12-17T01:38:13;38.92;;;18.85;;
62258;SDS011;48241;48.824;10.102;2022-12-17T01:41:00;39.40;;;19.27;;
62258;SDS011;48241;48.824;10.102;2022-12-17T01:43:45;32.40;;;16.88;;
62258;SDS011;48241;48.824;10.102;2022-12-17T01:46:31;38.78;;;19.00;;
62258;SDS011;48241;48.824;10.102;2022-12-17T01:49:32;39.38;;;17.90;;
62258;SDS011;48241;48.824;10.102;2022-12-17T01:52:16;36.70;;;17.95;;
62258;SDS011;48241;48.824;10.102;2022-12-17T01:55:01;37.35;;;18.45;;
62258;SDS011;48241;48.824;10.102;2022-12-17T01:57:47;33.33;;;17.80;;
62258;SDS011;48241;48.824;10.102;2022-12-17T02:00:32;36.47;;;17.83;;
62258;SDS011;48241;48.824;10.102;2022-12-17T02:03:16;36.42;;;18.42;;
62258;SDS011;48241;48.824;10.102;2022-12-17T02:17:52;36.65;;;17.77;;
62258;SDS011;48241;48.824;10.102;2022-12-17T02:26:39;36.13;;;17.88;;
62258;SDS011;48241;48.824;10.102;2022-12-17T02:29:28;36.28;;;17.70;;
62258;SDS011;48241;48.824;10.102;2022-12-17T02:32:16;33.45;;;16.92;;
62258;SDS011;48241;48.824;10.102;2022-12-17T02:35:03;35.42;;;17.70;;
62258;SDS011;48241;48.824;10.102;2022-12-17T02:37:55;35.80;;;18.23;;
62258;SDS011;48241;48.824;10.102;2022-12-17T02:40:40;30.58;;;15.32;;
62258;SDS011;48241;48.824;10.102;2022-12-17T02:43:27;41.08;;;19.13;;
62258;SDS011;48241;48.824;10.102;2022-12-17T02:46:13;33.13;;;16.58;;
62258;SDS011;48241;48.824;10.102;2022-12-17T02:48:58;37.25;;;18.67;;
62258;SDS011;48241;48.824;10.102;2022-12-17T02:51:42;39.20;;;18.33;;
62258;SDS011;48241;48.824;10.102;2022-12-17T02:54:30;41.47;;;18.33;;
62258;SDS011;48241;48.824;10.102;2022-12-17T02:57:16;36.58;;;18.65;;
62258;SDS011;48241;48.824;10.102;2022-12-17T03:00:04;40.10;;;18.77;;
62258;SDS011;48241;48.824;10.102;2022-12-17T03:02:49;34.58;;;18.00;;
62258;SDS011;48241;48.824;10.102;2022-12-17T03:05:33;39.60;;;19.60;;
62258;SDS011;48241;48.824;10.102;2022-12-17T03:08:17;37.25;;;18.88;;
62258;SDS011;48241;48.824;10.102;2022-12-17T03:11:18;38.38;;;18.58;;
62258;SDS011;48241;48.824;10.102;2022-12-17T03:14:02;36.25;;;18.42;;
62258;SDS011;48241;48.824;10.102;2022-12-17T03:16:47;34.45;;;17.27;;
62258;SDS011;48241;48.824;10.102;2022-12-17T03:19:31;38.63;;;18.90;;
62258;SDS011;48241;48.824;10.102;2022-12-17T03:22:15;35.97;;;18.05;;
62258;SDS011;48241;48.824;10.102;2022-12-17T03:25:00;40.25;;;19.55;;
62258;SDS011;48241;48.824;10.102;2022-12-17T03:27:44;37.13;;;18.92;;
62258;SDS011;48241;48.824;10.102;2022-12-17T03:30:28;42.15;;;20.13;;
62258;SDS011;48241;48.824;10.102;2022-12-17T03:33:12;41.80;;;19.23;;
62258;SDS011;48241;48.824;10.102;2022-12-17T03:35:56;35.92;;;18.30;;
62258;SDS011;48241;48.824;10.102;2022-12-17T03:38:41;41.45;;;18.48;;
62258;SDS011;48241;48.824;10.102;2022-12-17T03:41:25;42.75;;;20.48;;
62258;SDS011;48241;48.824;10.102;2022-12-17T03:44:09;40.40;;;19.23;;
62258;SDS011;48241;48.824;10.102;2022-12-17T03:46:53;40.55;;;18.95;;
62258;SDS011;48241;48.824;10.102;2022-12-17T03:49:37;38.35;;;18.42;;
62258;SDS011;48241;48.824;10.102;2022-12-17T03:52:21;40.67;;;19.30;;
62258;SDS011;48241;48.824;10.102;2022-12-17T03:55:06;38.65;;;18.45;;
62258;SDS011;48241;48.824;10.102;2022-12-17T03:57:50;40.75;;;19.85;;
62258;SDS011;48241;48.824;10.102;2022-12-17T04:00:34;37.80;;;17.83;;
62258;SDS011;48241;48.824;10.102;2022-12-17T04:03:18;41.88;;;18.92;;
62258;SDS011;48241;48.824;10.102;2022-12-17T04:06:03;38.08;;;19.20;;
62258;SDS011;48241;48.824;10.102;2022-12-17T04:08:47;40.53;;;19.58;;
62258;SDS011;48241;48.824;10.102;2022-12-17T04:11:31;37.33;;;18.08;;
62258;SDS011;48241;48.824;10.102;2022-12-17T04:14:15;36.45;;;18.13;;
62258;SDS011;48241;48.824;10.102;2022-12-17T04:16:59;36.50;;;19.98;;
62258;SDS011;48241;48.824;10.102;2022-12-17T04:19:44;40.72;;;19.45;;
62258;SDS011;48241;48.824;10.102;2022-12-17T04:22:28;42.33;;;19.90;;
62258;SDS011;48241;48.824;10.102;2022-12-17T04:25:12;40.47;;;19.85;;
62258;SDS011;48241;48.824;10.102;2022-12-17T04:27:56;41.30;;;19.95;;
62258;SDS011;48241;48.824;10.102;2022-12-17T04:30:40;36.83;;;18.50;;
62258;SDS011;48241;48.824;10.102;2022-12-17T04:33:25;41.72;;;18.80;;
62258;SDS011;48241;48.824;10.102;2022-12-17T04:36:09;43.10;;;18.65;;
62258;SDS011;48241;48.824;10.102;2022-12-17T04:38:53;40.10;;;19.65;;
62258;SDS011;48241;48.824;10.102;2022-12-17T04:41:37;43.05;;;18.98;;
62258;SDS011;48241;48.824;10.102;2022-12-17T04:44:21;35.97;;;18.52;;
62258;SDS011;48241;48.824;10.102;2022-12-17T04:47:06;42.42;;;19.85;;
62258;SDS011;48241;48.824;10.102;2022-12-17T04:49:50;42.33;;;19.17;;
62258;SDS011;48241;48.824;10.102;2022-12-17T04:52:34;38.45;;;18.85;;
62258;SDS011;48241;48.824;10.102;2022-12-17T04:55:18;38.10;;;17.83;;
62258;SDS011;48241;48.824;10.102;2022-12-17T04:58:03;35.92;;;18.60;;
62258;SDS011;48241;48.824;10.102;2022-12-17T05:00:52;41.67;;;18.95;;
62258;SDS011;48241;48.824;10.102;2022-12-17T05:03:36;37.08;;;17.10;;
62258;SDS011;48241;48.824;10.102;2022-12-17T05:06:20;34.13;;;16.63;;
62258;SDS011;48241;48.824;10.102;2022-12-17T05:09:04;39.85;;;16.95;;
62258;SDS011;48241;48.824;10.102;2022-12-17T05:11:49;35.97;;;16.83;;
62258;SDS011;48241;48.824;10.102;2022-12-17T05:14:33;38.33;;;17.65;;
62258;SDS011;48241;48.824;10.102;2022-12-17T05:17:17;45.58;;;18.92;;
62258;SDS011;48241;48.824;10.102;2022-12-17T05:20:02;40.88;;;18.00;;
62258;SDS011;48241;48.824;10.102;2022-12-17T05:22:47;37.95;;;17.35;;
62258;SDS011;48241;48.824;10.102;2022-12-17T05:25:31;38.20;;;16.80;;
62258;SDS011;48241;48.824;10.102;2022-12-17T05:28:15;40.90;;;16.77;;
62258;SDS011;48241;48.824;10.102;2022-12-17T05:30:59;36.58;;;17.30;;
62258;SDS011;48241;48.824;10.102;2022-12-17T05:33:43;41.88;;;19.08;;
62258;SDS011;48241;48.824;10.102;2022-12-17T05:36:28;41.40;;;18.48;;
62258;SDS011;48241;48.824;10.102;2022-12-17T05:39:12;43.10;;;17.33;;
62258;SDS011;48241;48.824;10.102;2022-12-17T05:41:56;42.47;;;18.90;;
62258;SDS011;48241;48.824;10.102;2022-12-17T05:44:40;37.33;;;17.70;;
62258;SDS011;48241;48.824;10.102;2022-12-17T05:47:24;38.72;;;17.05;;
62258;SDS011;48241;48.824;10.102;2022-12-17T05:50:08;35.40;;;15.50;;
62258;SDS011;48241;48.824;10.102;2022-12-17T05:52:52;34.55;;;15.20;;
62258;SDS011;48241;48.824;10.102;2022-12-17T05:55:37;27.95;;;12.80;;
62258;SDS011;48241;48.824;10.102;2022-12-17T05:58:21;33.15;;;13.65;;
62258;SDS011;48241;48.824;10.102;2022-12-17T06:01:05;27.92;;;12.90;;
62258;SDS011;48241;48.824;10.102;2022-12-17T06:03:50;29.80;;;13.82;;
62258;SDS011;48241;48.824;10.102;2022-12-17T06:06:34;28.02;;;13.80;;
62258;SDS011;48241;48.824;10.102;2022-12-17T06:09:18;24.50;;;11.00;;
62258;SDS011;48241;48.824;10.102;2022-12-17T06:12:03;26.20;;;12.90;;
62258;SDS011;48241;48.824;10.102;2022-12-17T06:14:47;25.67;;;12.63;;
62258;SDS011;48241;48.824;10.102;2022-12-17T06:17:31;25.83;;;12.73;;
62258;SDS011;48241;48.824;10.102;2022-12-17T06:20:15;28.75;;;12.45;;
62258;SDS011;48241;48.824;10.102;2022-12-17T06:23:04;21.15;;;11.57;;
62258;SDS011;48241;48.824;10.102;2022-12-17T06:25:53;23.58;;;11.77;;
62258;SDS011;48241;48.824;10.102;2022-12-17T06:28:39;24.20;;;11.30;;
62258;SDS011;48241;48.824;10.102;2022-12-17T06:31:24;22.63;;;11.23;;
62258;SDS011;48241;48.824;10.102;2022-12-17T06:34:08;25.30;;;12.20;;
62258;SDS011;48241;48.824;10.102;2022-12-17T06:36:54;25.00;;;11.32;;
62258;SDS011;48241;48.824;10.102;2022-12-17T06:39:38;26.70;;;11.98;;
62258;SDS011;48241;48.824;10.102;2022-12-17T06:42:22;22.67;;;12.15;;
62258;SDS011;48241;48.824;10.102;2022-12-17T06:45:07;30.95;;;13.25;;
62258;SDS011;48241;48.824;10.102;2022-12-17T06:47:51;25.55;;;11.40;;
62258;SDS011;48241;48.824;10.102;2022-12-17T06:50:44;24.45;;;11.85;;
62258;SDS011;48241;48.824;10.102;2022-12-17T06:53:28;25.73;;;11.55;;
62258;SDS011;48241;48.824;10.102;2022-12-17T06:56:13;26.58;;;11.60;;
62258;SDS011;48241;48.824;10.102;2022-12-17T07:04:10;20.70;;;10.63;;
